createdAt,value
2022-08-12T00:00:38.713Z,13863.54
2022-08-12T00:03:05.818Z,13858.66
2022-08-12T00:05:32.748Z,13876.48
2022-08-12T00:07:59.563Z,13870.24
2022-08-12T00:10:27.557Z,13854.02
2022-08-12T00:12:56.219Z,13883.64
2022-08-12T00:15:24.207Z,13858.62
2022-08-12T00:17:52.075Z,13846.57
2022-08-12T00:20:18.996Z,13836.87
2022-08-12T00:22:55.248Z,13840.17
2022-08-12T00:26:19.042Z,13884.94
2022-08-12T00:28:27.103Z,13897.98
2022-08-12T00:30:54.526Z,13898.50
2022-08-12T00:33:26.351Z,13901.43
2022-08-12T00:36:00.726Z,13893.93
2022-08-12T00:38:28.873Z,13896.66
2022-08-12T00:40:58.543Z,13902.84
2022-08-12T00:43:27.243Z,13898.30
2022-08-12T00:45:55.021Z,13902.11
2022-08-12T00:48:22.286Z,13892.22
2022-08-12T00:50:54.883Z,13876.09
2022-08-12T00:53:23.195Z,13927.48
2022-08-12T00:55:54.724Z,13948.36
2022-08-12T00:58:26.111Z,13907.42
2022-08-12T01:00:53.376Z,13950.55
2022-08-12T01:03:21.455Z,13913.31
2022-08-12T01:05:54.360Z,13908.24
2022-08-12T01:08:21.311Z,13895.47
2022-08-12T01:10:49.250Z,13875.60
2022-08-12T01:13:20.206Z,13886.04
2022-08-12T01:15:50.690Z,13888.13
2022-08-12T01:18:23.616Z,13886.98
2022-08-12T01:20:53.305Z,13905.06
2022-08-12T01:23:35.074Z,13909.84
2022-08-12T01:26:06.130Z,13936.16
2022-08-12T01:28:35.731Z,13938.33
2022-08-12T01:31:06.447Z,13905.17
2022-08-12T01:34:03.703Z,13904.53
2022-08-12T01:36:56.146Z,13929.98
2022-08-12T01:39:33.386Z,13939.35
2022-08-12T01:42:09.250Z,13921.22
2022-08-12T01:44:37.492Z,13942.31
2022-08-12T01:47:04.211Z,13904.17
2022-08-12T01:49:53.101Z,13915.60
2022-08-12T01:52:53.734Z,13870.92
2022-08-12T01:55:26.947Z,13908.09
2022-08-12T01:58:11.901Z,13891.03
2022-08-12T02:00:46.088Z,13870.11
2022-08-12T02:03:34.140Z,13904.08
2022-08-12T02:06:17.403Z,13942.89
2022-08-12T02:08:46.829Z,13918.67
2022-08-12T02:11:43.441Z,13881.46
2022-08-12T02:14:13.159Z,13901.30
2022-08-12T02:16:42.648Z,13938.33
2022-08-12T02:19:35.145Z,13938.54
2022-08-12T02:22:31.246Z,13927.46
2022-08-12T02:25:07.099Z,13954.99
2022-08-12T02:27:38.813Z,13950.59
2022-08-12T02:30:09.019Z,13936.21
2022-08-12T02:32:40.877Z,13911.86
2022-08-12T02:35:13.961Z,13895.17
2022-08-12T02:37:43.751Z,13890.13
2022-08-12T02:40:12.833Z,13907.42
2022-08-12T02:43:14.716Z,13923.32
2022-08-12T02:46:14.060Z,13940.58
2022-08-12T02:48:51.768Z,13919.73
2022-08-12T02:51:25.992Z,13913.56
2022-08-12T02:54:04.455Z,13897.66
2022-08-12T02:56:34.910Z,13923.25
2022-08-12T02:59:02.072Z,13893.50
2022-08-12T03:01:33.643Z,13898.10
2022-08-12T03:04:07.153Z,13886.92
2022-08-12T03:06:57.114Z,13881.70
2022-08-12T03:09:34.089Z,13890.91
2022-08-12T03:12:20.037Z,13923.89
2022-08-12T03:14:51.952Z,13970.80
2022-08-12T03:17:46.823Z,14004.90
2022-08-12T03:20:37.378Z,14058.34
2022-08-12T03:23:05.018Z,14103.00
2022-08-12T03:25:35.778Z,14110.45
2022-08-12T03:28:03.614Z,14131.19
2022-08-12T03:30:32.506Z,14131.01
2022-08-12T03:33:02.273Z,14140.38
2022-08-12T03:35:40.465Z,14177.36
2022-08-12T03:38:11.777Z,14165.61
2022-08-12T03:41:03.835Z,14158.91
2022-08-12T03:43:39.115Z,14174.85
2022-08-12T03:46:26.298Z,14203.28
2022-08-12T03:48:53.268Z,14199.29
2022-08-12T03:51:20.135Z,14196.98
2022-08-12T03:53:47.782Z,14215.48
2022-08-12T03:56:15.755Z,14208.02
2022-08-12T03:58:42.522Z,14213.15
2022-08-12T04:01:09.455Z,14210.46
2022-08-12T04:03:37.709Z,14200.08
2022-08-12T04:06:04.923Z,14206.25
2022-08-12T04:08:32.296Z,14203.47
2022-08-12T04:10:59.609Z,14214.11
2022-08-12T04:13:46.333Z,14226.87
2022-08-12T04:16:13.726Z,14234.52
2022-08-12T04:18:41.131Z,14225.60
2022-08-12T04:21:08.454Z,14200.70
2022-08-12T04:23:35.612Z,14212.50
2022-08-12T04:26:04.522Z,14217.81
2022-08-12T04:28:31.407Z,14246.42
2022-08-12T04:30:58.270Z,14249.72
2022-08-12T04:33:25.388Z,14232.44
2022-08-12T04:35:52.115Z,14207.32
2022-08-12T04:38:21.131Z,14207.15
2022-08-12T04:40:48.843Z,14216.28
2022-08-12T04:43:54.536Z,14234.38
2022-08-12T04:46:02.340Z,14225.16
2022-08-12T04:48:29.082Z,14228.97
2022-08-12T04:50:58.379Z,14217.58
2022-08-12T04:53:25.742Z,14248.12
2022-08-12T04:55:54.903Z,14246.57
2022-08-12T04:58:29.857Z,14257.75
2022-08-12T05:00:57.070Z,14248.03
2022-08-12T05:03:26.754Z,14236.89
2022-08-12T05:05:54.133Z,14211.04
2022-08-12T05:08:20.901Z,14186.62
2022-08-12T05:10:52.346Z,14178.51
2022-08-12T05:13:21.805Z,14198.27
2022-08-12T05:16:04.666Z,14186.80
2022-08-12T05:18:39.370Z,14162.67
2022-08-12T05:21:08.208Z,14228.07
2022-08-12T05:23:37.958Z,14204.56
2022-08-12T05:26:04.962Z,14240.23
2022-08-12T05:28:32.677Z,14211.61
2022-08-12T05:31:00.400Z,14192.97
2022-08-12T05:33:28.705Z,14175.29
2022-08-12T05:35:55.466Z,14152.31
2022-08-12T05:38:23.869Z,14102.52
2022-08-12T05:40:50.848Z,14104.90
2022-08-12T05:43:18.612Z,14095.25
2022-08-12T05:45:45.892Z,14049.85
2022-08-12T05:48:12.977Z,14041.70
2022-08-12T05:50:41.134Z,13973.07
2022-08-12T05:53:08.178Z,13933.69
2022-08-12T05:55:36.240Z,13899.60
2022-08-12T05:58:04.934Z,13873.18
2022-08-12T06:00:32.794Z,13904.88
2022-08-12T06:02:59.737Z,13898.09
2022-08-12T06:05:51.872Z,13882.90
2022-08-12T06:08:24.496Z,13914.55
2022-08-12T06:10:51.816Z,13911.08
2022-08-12T06:13:28.763Z,13939.27
2022-08-12T06:16:07.756Z,13928.87
2022-08-12T06:18:34.592Z,13939.01
2022-08-12T06:21:02.363Z,13937.65
2022-08-12T06:23:29.848Z,13908.38
2022-08-12T06:25:57.698Z,13881.58
2022-08-12T06:28:25.635Z,13900.85
2022-08-12T06:33:55.949Z,13870.85
2022-08-12T06:36:30.086Z,13857.92
2022-08-12T06:39:00.629Z,13865.86
2022-08-12T06:41:27.362Z,13860.77
2022-08-12T06:44:06.055Z,13876.28
2022-08-12T06:46:33.982Z,13883.08
2022-08-12T06:49:00.889Z,13874.69
2022-08-12T06:51:30.840Z,13872.63
2022-08-12T06:54:00.122Z,13880.94
2022-08-12T06:56:59.797Z,13880.77
2022-08-12T06:59:14.574Z,13873.54
2022-08-12T07:01:41.572Z,13794.32
2022-08-12T07:04:36.262Z,13723.47
2022-08-12T07:07:06.001Z,13584.04
2022-08-12T07:10:00.034Z,13478.61
2022-08-12T07:12:19.549Z,13452.67
2022-08-12T07:14:49.016Z,13430.17
2022-08-12T07:17:15.877Z,13382.21
2022-08-12T07:19:45.367Z,13343.04
2022-08-12T07:22:12.700Z,13388.08
2022-08-12T07:24:39.772Z,13412.84
2022-08-12T07:27:06.538Z,13420.82
2022-08-12T07:30:04.351Z,13396.74
2022-08-12T07:32:20.456Z,13436.31
2022-08-12T07:34:47.401Z,13457.23
2022-08-12T07:37:14.120Z,13442.42
2022-08-12T07:39:51.157Z,13423.48
2022-08-12T07:42:26.944Z,13387.40
2022-08-12T07:44:53.875Z,13333.45
2022-08-12T07:47:20.616Z,13289.96
2022-08-12T07:50:04.506Z,13278.05
2022-08-12T07:52:42.319Z,13243.99
2022-08-12T07:55:11.293Z,13246.12
2022-08-12T07:57:56.767Z,13251.10
2022-08-12T08:00:24.665Z,13264.21
2022-08-12T08:02:52.709Z,13270.15
2022-08-12T08:05:19.729Z,13269.54
2022-08-12T08:07:46.749Z,13281.43
2022-08-12T08:10:14.048Z,13263.50
2022-08-12T08:12:40.910Z,13266.76
2022-08-12T08:15:07.761Z,13244.48
2022-08-12T08:17:34.450Z,13243.62
2022-08-12T08:20:02.630Z,13256.01
2022-08-12T08:22:40.694Z,13278.52
2022-08-12T08:25:34.503Z,13239.08
2022-08-12T08:27:57.847Z,13242.68
2022-08-12T08:30:29.593Z,13265.49
2022-08-12T08:32:56.566Z,13284.21
2022-08-12T08:35:25.219Z,13285.67
2022-08-12T08:38:10.181Z,13227.41
2022-08-12T08:40:44.761Z,13258.08
2022-08-12T08:43:11.431Z,13247.50
2022-08-12T08:45:38.100Z,13297.18
2022-08-12T08:48:04.975Z,13266.16
2022-08-12T08:50:31.714Z,13267.40
2022-08-12T08:52:58.421Z,13273.31
2022-08-12T08:55:37.481Z,13244.19
2022-08-12T08:58:12.001Z,13261.33
2022-08-12T09:00:38.770Z,13263.55
2022-08-12T09:04:21.168Z,13248.01
2022-08-12T09:06:02.255Z,13250.56
2022-08-12T09:08:29.399Z,13269.83
2022-08-12T09:10:59.587Z,13247.74
2022-08-12T09:16:13.630Z,13245.05
2022-08-12T09:18:41.193Z,13245.28
2022-08-12T09:21:08.005Z,13250.95
2022-08-12T09:23:59.826Z,13252.64
2022-08-12T09:26:22.815Z,13253.92
2022-08-12T09:28:56.032Z,13235.93
2022-08-12T09:32:07.820Z,13249.18
2022-08-12T09:34:29.146Z,13244.14
2022-08-12T09:37:01.578Z,13258.31
2022-08-12T09:40:02.372Z,13265.72
2022-08-12T09:42:38.958Z,13229.65
2022-08-12T09:45:19.152Z,13246.59
2022-08-12T09:47:59.352Z,13339.59
2022-08-12T09:50:27.675Z,13375.28
2022-08-12T09:53:29.092Z,13368.42
2022-08-12T09:56:06.472Z,13408.36
2022-08-12T09:58:57.854Z,13432.18
2022-08-12T10:01:35.727Z,13464.99
2022-08-12T10:04:14.309Z,13459.00
2022-08-12T10:06:53.934Z,13485.05
2022-08-12T10:09:23.333Z,13475.50
2022-08-12T10:12:13.019Z,13498.03
2022-08-12T10:14:52.660Z,13493.74
2022-08-12T10:17:21.910Z,13498.82
2022-08-12T10:19:51.918Z,13520.70
2022-08-12T10:22:37.060Z,13513.21
2022-08-12T10:25:17.091Z,13473.06
2022-08-12T10:28:05.823Z,13474.46
2022-08-12T10:30:41.744Z,13451.58
2022-08-12T10:33:18.154Z,13470.35
2022-08-12T10:35:46.102Z,13460.84
2022-08-12T10:38:35.713Z,13452.70
2022-08-12T10:41:00.325Z,13464.65
2022-08-12T10:43:30.773Z,13447.41
2022-08-12T10:46:17.491Z,13403.95
2022-08-12T10:49:05.657Z,13397.07
2022-08-12T10:52:03.660Z,13377.36
2022-08-12T10:54:26.865Z,13406.48
2022-08-12T10:56:55.212Z,13410.25
2022-08-12T11:00:29.059Z,13414.72
2022-08-12T11:04:20.236Z,13380.48
2022-08-12T11:04:57.616Z,13415.42
2022-08-12T11:08:35.053Z,13392.08
2022-08-12T11:10:12.384Z,13398.54
2022-08-12T11:12:58.133Z,13400.73
2022-08-12T11:16:02.848Z,13416.62
2022-08-12T11:18:18.517Z,13360.55
2022-08-12T11:20:47.620Z,13373.06
2022-08-12T11:23:25.827Z,13415.02
2022-08-12T11:26:07.253Z,13403.98
2022-08-12T11:28:38.657Z,13370.19
2022-08-12T11:31:09.735Z,13325.69
2022-08-12T11:34:06.771Z,13400.69
2022-08-12T11:36:26.612Z,13399.50
2022-08-12T11:38:54.594Z,13450.37
2022-08-12T11:41:31.363Z,13455.05
2022-08-12T11:44:12.677Z,13469.18
2022-08-12T11:46:51.499Z,13430.40
2022-08-12T11:49:30.641Z,13428.79
2022-08-12T11:51:59.065Z,13435.38
2022-08-12T11:54:25.732Z,13411.84
2022-08-12T11:57:00.067Z,13387.93
2022-08-12T12:02:20.070Z,13356.32
2022-08-12T12:04:52.879Z,13380.54
2022-08-12T12:08:36.544Z,13354.91
2022-08-12T12:10:16.841Z,13371.50
2022-08-12T12:12:49.947Z,13343.26
2022-08-12T12:15:24.580Z,13306.12
2022-08-12T12:17:55.669Z,13307.68
2022-08-12T12:20:25.999Z,13329.74
2022-08-12T12:22:54.504Z,13297.99
2022-08-12T12:25:21.428Z,13313.97
2022-08-12T12:28:07.857Z,13296.98
2022-08-12T12:30:55.101Z,13288.00
2022-08-12T12:33:22.003Z,13291.17
2022-08-12T12:36:18.182Z,13283.45
2022-08-12T12:38:35.614Z,13307.80
2022-08-12T12:41:14.204Z,13309.00
2022-08-12T12:43:56.624Z,13322.19
2022-08-12T12:46:31.305Z,13301.22
2022-08-12T12:48:57.978Z,13297.24
2022-08-12T12:52:17.172Z,13290.24
2022-08-12T12:54:13.170Z,13294.71
2022-08-12T12:56:43.211Z,13287.10
2022-08-12T12:59:56.573Z,13299.95
2022-08-12T13:01:57.560Z,13289.46
2022-08-12T13:04:26.362Z,13292.45
2022-08-12T13:06:54.037Z,13295.88
2022-08-12T13:09:22.105Z,13293.96
2022-08-12T13:11:53.414Z,13306.03
2022-08-12T13:14:28.940Z,13310.60
2022-08-12T13:16:58.978Z,13305.84
2022-08-12T13:19:38.873Z,13307.83
2022-08-12T13:22:10.080Z,13306.67
2022-08-12T13:24:36.734Z,13295.74
2022-08-12T13:27:03.467Z,13322.24
2022-08-12T13:29:33.338Z,13297.20
2022-08-12T13:32:30.906Z,13294.55
2022-08-12T13:34:46.908Z,13295.90
2022-08-12T13:37:19.840Z,13288.76
2022-08-12T13:39:46.612Z,13300.03
2022-08-12T13:42:14.489Z,13318.69
2022-08-12T13:44:42.490Z,13315.80
2022-08-12T13:47:19.483Z,13312.56
2022-08-12T13:49:53.809Z,13298.68
2022-08-12T13:52:22.483Z,13312.82
2022-08-12T13:54:56.442Z,13311.95
2022-08-12T13:57:24.212Z,13315.30
2022-08-12T13:59:55.014Z,13315.63
2022-08-12T14:02:22.781Z,13316.93
2022-08-12T14:04:56.701Z,13316.34
2022-08-12T14:07:25.951Z,13315.53
2022-08-12T14:09:54.754Z,13313.89
2022-08-12T14:12:21.472Z,13327.36
2022-08-12T14:14:50.974Z,13340.70
2022-08-12T14:17:19.807Z,13315.68
2022-08-12T14:19:51.220Z,13316.45
2022-08-12T14:22:21.023Z,13302.05
2022-08-12T14:24:52.803Z,13280.16
2022-08-12T14:28:02.447Z,13274.58
2022-08-12T14:30:15.773Z,13262.28
2022-08-12T14:32:44.104Z,13248.40
2022-08-12T14:35:12.076Z,13259.81
2022-08-12T14:37:57.324Z,13284.95
2022-08-12T14:40:29.739Z,13287.87
2022-08-12T14:42:58.182Z,13282.34
2022-08-12T14:45:44.995Z,13282.72
2022-08-12T14:48:14.775Z,13294.92
2022-08-12T14:51:09.588Z,13272.56
2022-08-12T14:59:23.433Z,13262.95
2022-08-12T15:01:48.717Z,13255.13
2022-08-12T15:04:15.561Z,13253.36
2022-08-12T15:06:52.281Z,13269.09
2022-08-12T15:09:19.512Z,13285.59
2022-08-12T15:12:03.366Z,13267.99
2022-08-12T15:14:32.183Z,13275.26
2022-08-12T15:17:02.188Z,13280.97
2022-08-12T15:20:12.169Z,13272.36
2022-08-12T15:22:38.100Z,13278.81
2022-08-12T15:25:05.433Z,13288.44
2022-08-12T15:28:05.552Z,13314.89
2022-08-12T15:30:23.852Z,13304.65
2022-08-12T15:32:52.045Z,13314.53
2022-08-12T15:35:19.610Z,13329.38
2022-08-12T15:38:10.192Z,13319.53
2022-08-12T15:40:46.775Z,13307.93
2022-08-12T15:43:35.369Z,13309.62
2022-08-12T15:46:04.582Z,13305.42
2022-08-12T15:48:31.300Z,13292.18
2022-08-12T15:50:59.854Z,13302.76
2022-08-12T15:53:28.125Z,13300.79
2022-08-12T15:55:54.853Z,13327.04
2022-08-12T15:58:27.648Z,13313.28
2022-08-12T16:01:00.664Z,13320.90
2022-08-12T16:03:45.507Z,13307.25
2022-08-12T16:06:36.204Z,13288.35
2022-08-12T16:09:03.646Z,13308.64
2022-08-12T16:11:41.166Z,13304.65
2022-08-12T16:14:10.457Z,13284.40
2022-08-12T16:16:37.248Z,13280.25
2022-08-12T16:19:09.099Z,13286.24
2022-08-12T16:21:51.478Z,13288.14
2022-08-12T16:24:19.910Z,13302.34
2022-08-12T16:26:50.993Z,13295.31
2022-08-12T16:29:18.266Z,13298.28
2022-08-12T16:31:45.458Z,13271.94
2022-08-12T16:34:25.698Z,13282.92
2022-08-12T16:36:58.968Z,13299.70
2022-08-12T16:39:25.805Z,13299.45
2022-08-12T16:41:52.527Z,13295.88
2022-08-12T16:44:19.439Z,13299.79
2022-08-12T16:46:57.662Z,13346.88
2022-08-12T16:49:25.176Z,13354.35
2022-08-12T16:51:52.127Z,13309.29
2022-08-12T16:54:19.611Z,13386.04
2022-08-12T16:56:55.119Z,13368.81
2022-08-12T16:59:25.885Z,13325.40
2022-08-12T17:01:53.944Z,13366.66
2022-08-12T17:04:24.369Z,13366.01
2022-08-12T17:06:51.614Z,13375.16
2022-08-12T17:09:19.475Z,13336.05
2022-08-12T17:11:49.587Z,13363.98
2022-08-12T17:14:23.159Z,13354.22
2022-08-12T17:16:50.931Z,13307.47
2022-08-12T17:19:20.559Z,13331.21
2022-08-12T17:22:11.050Z,13312.00
2022-08-12T17:24:43.881Z,13304.86
2022-08-12T17:27:19.596Z,13304.77
2022-08-12T17:30:00.639Z,13303.58
2022-08-12T17:32:31.278Z,13292.12
2022-08-12T17:35:00.321Z,13303.27
2022-08-12T17:37:30.425Z,13321.65
2022-08-12T17:40:15.818Z,13417.01
2022-08-12T17:42:47.366Z,13403.54
2022-08-12T17:45:17.038Z,13426.11
2022-08-12T17:48:01.295Z,13410.02
2022-08-12T17:50:33.113Z,13452.81
2022-08-12T17:53:03.054Z,13415.67
2022-08-12T17:55:40.514Z,13413.08
2022-08-12T17:58:14.346Z,13437.58
2022-08-12T18:00:43.178Z,13475.80
2022-08-12T18:03:13.617Z,13463.44
2022-08-12T18:06:03.597Z,13478.35
2022-08-12T18:08:33.257Z,13467.63
2022-08-12T18:11:02.933Z,13456.66
2022-08-12T18:13:40.812Z,13478.41
2022-08-12T18:16:12.765Z,13499.06
2022-08-12T18:18:41.856Z,13495.07
2022-08-12T18:21:08.722Z,13504.29
2022-08-12T18:23:40.146Z,13524.49
2022-08-12T18:26:18.109Z,13518.17
2022-08-12T18:28:48.408Z,13536.44
2022-08-12T18:31:19.418Z,13555.38
2022-08-12T18:33:49.650Z,13584.91
2022-08-12T18:36:22.655Z,13581.66
2022-08-12T18:38:52.801Z,13565.85
2022-08-12T18:41:33.516Z,13604.74
2022-08-12T18:44:12.151Z,13643.93
2022-08-12T18:46:54.234Z,13643.75
2022-08-12T18:49:34.912Z,13637.44
2022-08-12T18:52:05.494Z,13704.60
2022-08-12T18:54:35.900Z,13716.79
2022-08-12T18:57:05.644Z,13736.14
2022-08-12T18:59:59.697Z,13758.64
2022-08-12T19:02:24.950Z,13749.38
2022-08-12T19:04:53.005Z,13777.36
2022-08-12T19:07:29.737Z,13803.10
2022-08-12T19:10:13.588Z,13803.32
2022-08-12T19:12:42.396Z,13800.58
2022-08-12T19:15:22.668Z,13791.35
2022-08-12T19:18:00.423Z,13784.84
2022-08-12T19:20:29.369Z,13812.44
2022-08-12T19:22:59.694Z,13814.12
2022-08-12T19:26:00.283Z,13832.40
2022-08-12T19:28:17.526Z,13819.80
2022-08-12T19:30:52.764Z,13833.52
2022-08-12T19:33:21.836Z,13811.42
2022-08-12T19:36:23.987Z,13807.85
2022-08-12T19:38:35.556Z,13822.99
2022-08-12T19:41:03.584Z,13840.50
2022-08-12T19:43:40.892Z,13828.56
2022-08-12T19:46:27.703Z,13836.93
2022-08-12T19:49:04.345Z,13848.21
2022-08-12T19:51:36.307Z,13837.69
2022-08-12T19:54:05.049Z,13838.00
2022-08-12T19:56:31.982Z,13842.38
2022-08-12T19:59:00.802Z,13835.41
2022-08-12T20:01:27.726Z,13852.76
2022-08-12T20:04:00.734Z,13853.01
2022-08-12T20:06:31.329Z,13864.34
2022-08-12T20:09:01.166Z,13868.55
2022-08-12T20:12:13.579Z,13869.65
2022-08-12T20:14:20.940Z,13859.08
2022-08-12T20:16:52.165Z,13860.89
2022-08-12T20:19:21.487Z,13862.46
2022-08-12T20:21:51.017Z,13877.78
2022-08-12T20:24:19.090Z,13907.72
2022-08-12T20:26:46.496Z,13917.45
2022-08-12T20:29:16.564Z,13915.78
2022-08-12T20:31:43.914Z,13911.27
2022-08-12T20:34:13.768Z,13906.15
2022-08-12T20:36:45.342Z,13894.00
2022-08-12T20:39:34.085Z,13875.30
2022-08-12T20:42:07.050Z,13874.80
2022-08-12T20:44:36.421Z,13884.23
2022-08-12T20:47:16.519Z,13866.84
2022-08-12T20:49:55.926Z,13888.46
2022-08-12T20:52:29.947Z,13893.22
2022-08-12T20:54:58.394Z,13894.54
2022-08-12T20:57:25.316Z,13912.46
2022-08-12T21:00:08.144Z,13895.90
2022-08-12T21:02:38.505Z,13908.25
2022-08-12T21:05:10.908Z,13931.44
2022-08-12T21:07:51.585Z,13961.56
2022-08-12T21:10:20.565Z,13943.69
2022-08-12T21:12:48.388Z,13909.15
2022-08-12T21:15:22.839Z,13942.29
2022-08-12T21:18:09.079Z,13939.07
2022-08-12T21:20:51.101Z,13932.26
2022-08-12T21:23:19.121Z,13923.41
2022-08-12T21:25:46.110Z,13897.74
2022-08-12T21:28:16.263Z,13885.24
2022-08-12T21:31:11.741Z,13915.69
2022-08-12T21:33:45.599Z,13899.57
2022-08-12T21:36:32.075Z,13931.20
2022-08-12T21:39:18.505Z,13920.60
2022-08-12T21:41:50.902Z,13869.67
2022-08-12T21:44:24.672Z,13889.65
2022-08-12T21:47:21.366Z,13909.01
2022-08-12T21:50:04.369Z,13887.19
2022-08-12T21:52:40.865Z,13912.96
2022-08-12T21:55:18.215Z,13887.54
2022-08-12T21:57:54.317Z,13901.60
2022-08-12T22:00:32.382Z,13906.02
2022-08-12T22:03:05.380Z,13920.33
2022-08-12T22:05:32.132Z,13915.38
2022-08-12T22:07:58.894Z,13932.62
2022-08-12T22:10:28.418Z,13916.71
2022-08-12T22:12:56.157Z,13924.22
2022-08-12T22:15:23.566Z,13929.83
2022-08-12T22:17:55.421Z,13946.63
2022-08-12T22:20:29.543Z,13925.28
2022-08-12T22:22:57.218Z,13925.62
2022-08-12T22:25:26.769Z,13916.25
2022-08-12T22:27:53.839Z,13946.45
2022-08-12T22:30:21.351Z,13916.51
2022-08-12T22:32:50.413Z,13875.17
2022-08-12T22:35:22.460Z,13901.40
2022-08-12T22:37:53.464Z,13895.88
2022-08-12T22:40:20.426Z,13902.66
2022-08-12T22:42:51.449Z,13924.48
2022-08-12T22:45:18.323Z,13939.04
2022-08-12T22:47:54.895Z,13934.19
2022-08-12T22:50:27.413Z,13881.72
2022-08-12T22:53:00.642Z,13902.99
2022-08-12T22:55:59.132Z,13909.15
2022-08-12T22:58:14.008Z,13913.92
2022-08-12T23:00:43.153Z,13906.77
2022-08-12T23:03:46.988Z,13936.88
2022-08-12T23:06:10.710Z,13933.48
2022-08-12T23:08:38.120Z,13938.92
2022-08-12T23:11:06.285Z,13948.16
2022-08-12T23:13:43.930Z,13940.26
2022-08-12T23:16:28.563Z,13953.34
2022-08-12T23:18:59.696Z,13925.32
2022-08-12T23:21:26.708Z,13904.97
2022-08-12T23:24:13.343Z,13921.69
2022-08-12T23:26:45.533Z,13912.44
2022-08-12T23:29:25.911Z,13964.19
2022-08-12T23:32:03.416Z,13955.09
2022-08-12T23:34:32.386Z,13954.44
2022-08-12T23:36:59.093Z,13986.48
2022-08-12T23:40:06.510Z,13954.29
2022-08-12T23:42:17.678Z,13930.53
2022-08-12T23:44:46.228Z,13906.62
2022-08-12T23:47:17.511Z,13897.94
2022-08-12T23:49:58.577Z,13887.57
2022-08-12T23:52:28.552Z,13876.60
2022-08-12T23:55:24.202Z,13879.39
2022-08-12T23:57:51.088Z,13899.29
